Latest Weather Observations for Warburto Point

IDS60801

Issued at 7:35 am CST Tuesday 23 September 2014 (issued every 30 minutes, with the page automatically refreshed every 10 minutes)

About weather observations | Map of weather stations | Latest weather observations for SA | Other Formats
Station Details ID: 022053 Name: WARBURTO POINT Lat: -34.00 Lon: 137.53 Height: 1.0 m
Data from the previous 72 hours. | See also: Recent months for locations in South Australia
Date/Time
CST
Temp
°C
App
Temp
°C
Dew
Point
Rel
Hum
%
Delta-T
°C
Wind Press
QNH
hPa
Press
MSL
hPa
Rain
since 9 am
mm
Dir
 
Spd
km/h
Gust
km/h
Spd
kts
Gust
kts
23/07:30am - - - - - NE 22 30 12 16 - - -
23/07:00am - - - - - NE 19 24 10 13 - - -
23/06:30am - - - - - NE 20 26 11 14 - - -
23/06:00am - - - - - ENE 17 20 9 11 - - -
23/05:30am - - - - - ENE 22 26 12 14 - - -
23/05:00am - - - - - ENE 22 26 12 14 - - -
23/04:30am - - - - - NE 22 28 12 15 - - -
23/04:00am - - - - - NE 22 30 12 16 - - -
23/03:30am - - - - - NE 24 30 13 16 - - -
23/03:00am - - - - - NE 20 26 11 14 - - -
23/02:30am - - - - - ENE 19 22 10 12 - - -
23/02:00am - - - - - NE 24 28 13 15 - - -
23/01:30am - - - - - ENE 24 30 13 16 - - -
23/01:00am - - - - - ENE 19 28 10 15 - - -
23/12:30am - - - - - ENE 11 15 6 8 - - -
23/12:00am - - - - - ENE 15 19 8 10 - - -
 
Date/Time
CST
Temp
°C
App
Temp
°C
Dew
Point
Rel
Hum
%
Delta-T
°C
Wind Press
QNH
hPa
Press
MSL
hPa
Rain
since 9 am
mm
Dir
 
Spd
km/h
Gust
km/h
Spd
kts
Gust
kts
22/11:30pm - - - - - ENE 19 22 10 12 - - -
22/11:00pm - - - - - E 20 26 11 14 - - -
22/10:30pm - - - - - E 22 28 12 15 - - -
22/10:00pm - - - - - E 22 26 12 14 - - -
22/09:30pm - - - - - E 19 24 10 13 - - -
22/09:00pm - - - - - E 20 26 11 14 - - -
22/08:30pm - - - - - ESE 17 20 9 11 - - -
22/08:00pm - - - - - ESE 17 20 9 11 - - -
22/07:30pm - - - - - ESE 19 20 10 11 - - -
22/07:00pm - - - - - E 17 19 9 10 - - -
22/06:30pm - - - - - E 15 15 8 8 - - -
22/06:00pm - - - - - E 11 13 6 7 - - -
22/05:30pm - - - - - ENE 11 13 6 7 - - -
22/05:00pm - - - - - NNE 9 11 5 6 - - -
22/04:30pm - - - - - NNE 13 15 7 8 - - -
22/04:00pm - - - - - NNE 17 19 9 10 - - -
22/03:30pm - - - - - N 20 26 11 14 - - -
22/03:00pm - - - - - N 24 30 13 16 - - -
22/02:30pm - - - - - NNE 24 30 13 16 - - -
22/02:00pm - - - - - NNE 24 30 13 16 - - -
22/01:30pm - - - - - NNE 24 30 13 16 - - -
22/01:00pm - - - - - NNE 20 28 11 15 - - -
22/12:30pm - - - - - NNE 20 26 11 14 - - -
22/12:00pm - - - - - N 19 26 10 14 - - -
22/11:30am - - - - - N 22 28 12 15 - - -
22/11:00am - - - - - N 26 32 14 17 - - -
22/10:30am - - - - - N 28 33 15 18 - - -
22/10:00am - - - - - N 22 30 12 16 - - -
22/09:30am - - - - - NNE 19 22 10 12 - - -
22/09:00am - - - - - NNE 17 22 9 12 - - -
22/08:30am - - - - - NNE 17 20 9 11 - - -
22/08:00am - - - - - NE 15 19 8 10 - - -
22/07:30am - - - - - NE 17 20 9 11 - - -
22/07:00am - - - - - ENE 17 19 9 10 - - -
22/06:30am - - - - - ENE 17 19 9 10 - - -
22/06:00am - - - - - ENE 19 22 10 12 - - -
22/05:30am - - - - - NE 19 24 10 13 - - -
22/05:00am - - - - - NE 17 20 9 11 - - -
22/04:30am - - - - - NE 17 19 9 10 - - -
22/04:00am - - - - - ENE 17 20 9 11 - - -
22/03:30am - - - - - ENE 19 22 10 12 - - -
22/03:00am - - - - - ENE 20 22 11 12 - - -
22/02:30am - - - - - E 20 24 11 13 - - -
22/02:00am - - - - - E 19 22 10 12 - - -
22/01:30am - - - - - E 20 24 11 13 - - -
22/01:00am - - - - - E 20 24 11 13 - - -
22/12:30am - - - - - E 19 22 10 12 - - -
22/12:00am - - - - - E 20 22 11 12 - - -
 
Date/Time
CST
Temp
°C
App
Temp
°C
Dew
Point
Rel
Hum
%
Delta-T
°C
Wind Press
QNH
hPa
Press
MSL
hPa
Rain
since 9 am
mm
Dir
 
Spd
km/h
Gust
km/h
Spd
kts
Gust
kts
21/11:30pm - - - - - E 19 22 10 12 - - -
21/11:00pm - - - - - E 20 22 11 12 - - -
21/10:30pm - - - - - ESE 17 20 9 11 - - -
21/10:00pm - - - - - ESE 19 19 10 10 - - -
21/09:30pm - - - - - ESE 17 19 9 10 - - -
21/09:00pm - - - - - ESE 17 20 9 11 - - -
21/08:30pm - - - - - ESE 17 19 9 10 - - -
21/08:00pm - - - - - SE 13 15 7 8 - - -
21/07:30pm - - - - - SSE 15 17 8 9 - - -
21/07:00pm - - - - - S 15 17 8 9 - - -
21/06:30pm - - - - - SSW 13 15 7 8 - - -
21/06:00pm - - - - - SSW 15 19 8 10 - - -
21/05:30pm - - - - - SW 13 17 7 9 - - -
21/05:00pm - - - - - SW 15 19 8 10 - - -
21/04:30pm - - - - - W 13 17 7 9 - - -
21/04:00pm - - - - - W 13 15 7 8 - - -
21/03:30pm - - - - - W 15 17 8 9 - - -
21/03:00pm - - - - - W 15 19 8 10 - - -
21/02:30pm - - - - - W 13 17 7 9 - - -
21/02:00pm - - - - - NNW 15 19 8 10 - - -
21/01:30pm - - - - - N 15 19 8 10 - - -
21/01:00pm - - - - - N 17 20 9 11 - - -
21/12:30pm - - - - - N 15 19 8 10 - - -
21/12:00pm - - - - - N 15 19 8 10 - - -
21/11:30am - - - - - NNW 13 17 7 9 - - -
21/11:00am - - - - - N 13 17 7 9 - - -
21/10:30am - - - - - NNE 17 19 9 10 - - -
21/10:00am - - - - - NNE 15 19 8 10 - - -
21/09:30am - - - - - NNE 15 19 8 10 - - -
21/09:00am - - - - - NE 19 24 10 13 - - -
21/08:30am - - - - - NE 17 22 9 12 - - -
21/08:00am - - - - - ENE 13 17 7 9 - - -
21/07:30am - - - - - E 11 15 6 8 - - -
21/07:00am - - - - - E 15 19 8 10 - - -
21/06:30am - - - - - ESE 17 19 9 10 - - -
21/06:00am - - - - - ESE 15 15 8 8 - - -
21/05:30am - - - - - ESE 11 11 6 6 - - -
21/05:00am - - - - - ESE 11 13 6 7 - - -
21/04:30am - - - - - E 11 13 6 7 - - -
21/04:00am - - - - - N 11 13 6 7 - - -
21/03:30am - - - - - NNE 11 13 6 7 - - -
21/03:00am - - - - - NNE 11 15 6 8 - - -
21/02:30am - - - - - E 17 20 9 11 - - -
21/02:00am - - - - - E 19 22 10 12 - - -
21/01:30am - - - - - E 19 20 10 11 - - -
21/01:00am - - - - - E 17 19 9 10 - - -
21/12:30am - - - - - E 19 20 10 11 - - -
21/12:00am - - - - - ESE 20 26 11 14 - - -
 
Date/Time
CST
Temp
°C
App
Temp
°C
Dew
Point
Rel
Hum
%
Delta-T
°C
Wind Press
QNH
hPa
Press
MSL
hPa
Rain
since 9 am
mm
Dir
 
Spd
km/h
Gust
km/h
Spd
kts
Gust
kts
20/11:30pm - - - - - ESE 20 26 11 14 - - -
20/11:00pm - - - - - E 19 22 10 12 - - -
20/10:30pm - - - - - E 20 24 11 13 - - -
20/10:00pm - - - - - E 20 26 11 14 - - -
20/09:30pm - - - - - E 20 28 11 15 - - -
20/09:00pm - - - - - E 24 30 13 16 - - -
20/08:30pm - - - - - E 22 26 12 14 - - -
20/08:00pm - - - - - ESE 22 30 12 16 - - -
20/07:30pm - - - - - ESE 22 28 12 15 - - -
20/07:00pm - - - - - ESE 24 30 13 16 - - -
20/06:30pm - - - - - ESE 20 28 11 15 - - -
20/06:00pm - - - - - ESE 20 28 11 15 - - -
20/05:30pm - - - - - W 2 11 1 6 - - -
20/05:00pm - - - - - NNW 6 9 3 5 - - -
20/04:30pm - - - - - SW 7 11 4 6 - - -
20/04:00pm - - - - - N 7 11 4 6 - - -
20/03:30pm - - - - - NE 9 13 5 7 - - -
20/03:00pm - - - - - NNE 15 19 8 10 - - -
20/02:30pm - - - - - NNE 19 24 10 13 - - -
20/02:00pm - - - - - NNE 20 26 11 14 - - -
20/01:30pm - - - - - NNE 20 28 11 15 - - -
20/01:00pm - - - - - NNE 20 26 11 14 - - -
20/12:30pm - - - - - NNE 20 28 11 15 - - -
20/12:00pm - - - - - NNE 20 26 11 14 - - -
20/11:30am - - - - - NNE 20 26 11 14 - - -
20/11:00am - - - - - NNE 22 26 12 14 - - -
20/10:30am - - - - - NNE 24 28 13 15 - - -
20/10:00am - - - - - NNE 26 32 14 17 - - -
20/09:30am - - - - - NNE 22 30 12 16 - - -
20/09:00am - - - - - NE 24 28 13 15 - - -
20/08:30am - - - - - NE 19 24 10 13 - - -
20/08:00am - - - - - NE 22 28 12 15 - - -

Other Formats:

Comma delimited format used in spreadsheet applications
http://www.bom.gov.au/fwo/IDS60801/IDS60801.94666.axf

JavaScript Object Notation format (JSON) in row-major order
http://www.bom.gov.au/fwo/IDS60801/IDS60801.94666.json